Time;durP1;ratioP1;P1;durP2;ratioP2;P2;SDS_P1;SDS_P2;PMS_P1;PMS_P2;Temp;Humidity;BMP_temperature;BMP_pressure;BME280_temperature;BME280_humidity;BME280_pressure;Samples;Min_cycle;Max_cycle;Signal;HPM_P1;HPM_P2
2023/04/29 00:03:00;;;;;;;1.47;1.30;;;14.90;46.90;;;;;;10375798;28;20234;-70
2023/04/29 00:08:04;;;;;;;1.20;1.10;;;14.90;47.10;;;;;;10380089;28;20227;-70
2023/04/29 00:13:07;;;;;;;1.80;1.70;;;14.90;46.90;;;;;;10381277;28;20245;-70
2023/04/29 00:18:12;;;;;;;1.50;1.40;;;14.90;46.90;;;;;;10377785;28;20218;-70
2023/04/29 00:23:16;;;;;;;2.27;1.70;;;15.00;47.30;;;;;;10376665;28;20249;-70
2023/04/29 00:28:19;;;;;;;2.43;1.30;;;15.00;47.00;;;;;;10378912;28;20241;-70
2023/04/29 00:33:23;;;;;;;1.60;1.50;;;15.10;47.00;;;;;;10379519;28;20288;-70
2023/04/29 00:38:27;;;;;;;1.20;1.20;;;15.10;47.20;;;;;;10374823;28;20228;-70
2023/04/29 00:43:30;;;;;;;1.60;1.50;;;15.20;46.90;;;;;;10376765;28;20234;-70
2023/04/29 00:48:34;;;;;;;1.43;1.33;;;15.20;46.60;;;;;;10375751;28;20238;-70
2023/04/29 00:53:38;;;;;;;2.03;1.50;;;15.20;46.60;;;;;;10376135;28;20234;-70
2023/04/29 00:58:44;;;;;;;1.50;1.40;;;15.30;46.30;;;;;;10375782;28;20229;-70
2023/04/29 01:03:49;;;;;;;1.60;1.50;;;15.30;45.90;;;;;;10374994;28;20726;-71
2023/04/29 01:09:06;;;;;;;1.50;1.40;;;15.20;46.00;;;;;;10378955;28;20376;-70
2023/04/29 01:14:09;;;;;;;1.53;1.43;;;15.20;46.50;;;;;;10373008;28;20229;-70
2023/04/29 01:19:19;;;;;;;1.37;1.30;;;15.20;45.90;;;;;;10375875;28;20233;-70
2023/04/29 01:24:24;;;;;;;2.30;1.20;;;15.10;45.90;;;;;;10375301;28;20261;-71
2023/04/29 01:29:35;;;;;;;1.27;1.17;;;15.20;45.80;;;;;;10378400;28;20283;-69
2023/04/29 01:34:44;;;;;;;1.23;1.20;;;15.20;45.50;;;;;;10385541;28;20229;-70
2023/04/29 01:39:57;;;;;;;1.57;1.30;;;15.10;45.30;;;;;;10376059;28;20230;-70
2023/04/29 01:45:04;;;;;;;1.50;1.40;;;15.00;45.40;;;;;;10375702;28;20348;-70
2023/04/29 01:50:08;;;;;;;1.50;1.40;;;14.90;45.40;;;;;;10372343;28;20729;-70
2023/04/29 01:55:13;;;;;;;1.60;1.50;;;14.90;45.50;;;;;;10376533;28;20225;-70
2023/04/29 02:00:16;;;;;;;1.87;1.77;;;14.80;45.80;;;;;;10378885;28;20239;-70
2023/04/29 02:05:19;;;;;;;2.33;2.20;;;14.80;45.60;;;;;;10375025;28;20222;-70
2023/04/29 02:10:24;;;;;;;2.10;2.00;;;14.80;45.60;;;;;;10372792;28;20695;-70
2023/04/29 02:15:27;;;;;;;2.80;1.90;;;14.80;45.80;;;;;;10374922;28;20229;-70
2023/04/29 02:20:30;;;;;;;1.80;1.70;;;14.80;45.50;;;;;;10369169;28;20601;-71
2023/04/29 02:25:35;;;;;;;2.07;1.97;;;14.80;45.40;;;;;;10419130;28;20234;-71
2023/04/29 02:30:38;;;;;;;2.80;1.63;;;14.80;45.50;;;;;;10411915;28;20609;-71
2023/04/29 02:35:41;;;;;;;1.23;1.00;;;14.70;45.10;;;;;;10411578;28;20229;-71
2023/04/29 02:40:46;;;;;;;2.83;1.20;;;14.70;45.40;;;;;;10402901;28;20233;-71
2023/04/29 02:45:50;;;;;;;0.97;0.93;;;14.60;45.60;;;;;;10388881;28;20233;-71
2023/04/29 02:50:53;;;;;;;1.37;1.13;;;14.60;45.50;;;;;;10390963;28;20751;-70
2023/04/29 02:56:00;;;;;;;1.10;1.10;;;14.50;45.70;;;;;;10385332;28;20632;-70
2023/04/29 03:01:03;;;;;;;1.00;0.90;;;14.50;46.00;;;;;;10380316;28;20233;-71
2023/04/29 03:06:07;;;;;;;1.50;1.20;;;14.60;46.10;;;;;;10380098;28;20697;-71
2023/04/29 03:11:11;;;;;;;1.10;1.10;;;14.50;46.00;;;;;;10381344;28;20257;-71
2023/04/29 03:16:15;;;;;;;2.97;1.20;;;14.50;46.40;;;;;;10382482;28;20238;-71
2023/04/29 03:21:19;;;;;;;1.70;1.33;;;14.50;46.30;;;;;;10381666;28;20249;-71
2023/04/29 03:26:24;;;;;;;1.67;1.57;;;14.50;46.30;;;;;;10382275;28;20253;-71
2023/04/29 03:31:27;;;;;;;2.27;1.57;;;14.50;46.70;;;;;;10379672;28;20596;-71
2023/04/29 03:36:30;;;;;;;2.80;2.00;;;14.50;46.40;;;;;;10379999;28;20311;-71
2023/04/29 03:41:35;;;;;;;2.10;1.70;;;14.50;46.50;;;;;;10378679;28;20234;-71
2023/04/29 03:46:38;;;;;;;2.13;2.03;;;14.40;47.10;;;;;;10376397;28;20230;-71
2023/04/29 03:51:41;;;;;;;2.27;2.13;;;14.40;47.20;;;;;;10380980;28;20233;-71
2023/04/29 03:56:46;;;;;;;2.83;2.63;;;14.40;47.70;;;;;;10376807;28;20652;-71
2023/04/29 04:01:49;;;;;;;2.40;2.30;;;14.50;48.70;;;;;;10375310;28;20241;-71
2023/04/29 04:06:52;;;;;;;2.30;1.87;;;14.60;48.10;;;;;;10377661;28;20309;-71
2023/04/29 04:11:57;;;;;;;2.07;1.87;;;14.60;47.60;;;;;;10379274;28;20238;-71
2023/04/29 04:17:00;;;;;;;2.40;2.30;;;14.60;47.80;;;;;;10379611;28;20229;-71
2023/04/29 04:22:04;;;;;;;3.30;3.00;;;14.60;47.80;;;;;;10382716;28;20234;-71
2023/04/29 04:27:08;;;;;;;2.43;2.23;;;14.60;48.10;;;;;;10380823;28;20234;-71
2023/04/29 04:32:11;;;;;;;2.10;2.00;;;14.70;48.80;;;;;;10377296;28;20235;-71
2023/04/29 04:37:15;;;;;;;2.80;2.60;;;14.80;48.10;;;;;;10377869;28;20402;-71
2023/04/29 04:42:19;;;;;;;2.53;2.33;;;14.90;48.00;;;;;;10379877;28;20303;-71
2023/04/29 04:47:22;;;;;;;3.20;2.90;;;14.90;48.30;;;;;;10374765;28;20222;-71
2023/04/29 04:52:25;;;;;;;3.17;2.87;;;14.90;48.20;;;;;;10375325;28;20238;-71
2023/04/29 04:57:30;;;;;;;3.10;2.90;;;15.00;48.40;;;;;;10372298;28;20222;-71
2023/04/29 05:02:33;;;;;;;3.93;3.63;;;15.00;49.10;;;;;;10371933;28;20261;-71
2023/04/29 05:07:36;;;;;;;3.93;3.50;;;15.10;48.70;;;;;;10380262;28;20316;-69
2023/04/29 05:12:41;;;;;;;3.70;3.43;;;15.20;48.90;;;;;;10414221;28;20284;-69
2023/04/29 05:17:44;;;;;;;3.60;3.30;;;15.20;49.40;;;;;;10409364;28;20226;-70
2023/04/29 05:22:47;;;;;;;3.20;3.00;;;15.30;49.00;;;;;;10406612;28;20580;-70
2023/04/29 05:27:52;;;;;;;3.63;3.43;;;15.30;49.00;;;;;;10409145;28;20235;-69
2023/04/29 05:32:55;;;;;;;3.60;3.40;;;15.30;49.40;;;;;;10432591;28;20237;-70
2023/04/29 05:37:58;;;;;;;3.90;3.70;;;15.40;49.00;;;;;;10385283;28;20315;-70
2023/04/29 05:43:03;;;;;;;4.00;3.73;;;15.50;49.20;;;;;;10377107;28;20244;-70
2023/04/29 05:48:06;;;;;;;4.10;3.80;;;15.50;49.80;;;;;;10373813;28;20230;-70
2023/04/29 05:53:10;;;;;;;4.70;4.30;;;15.50;49.30;;;;;;10376078;28;20257;-70
2023/04/29 05:58:14;;;;;;;4.67;4.30;;;15.50;50.20;;;;;;10378990;28;20233;-69
2023/04/29 06:03:18;;;;;;;3.87;3.60;;;15.60;49.90;;;;;;10376400;28;20248;-70
2023/04/29 06:08:21;;;;;;;4.43;4.07;;;15.60;49.40;;;;;;10386061;28;20232;-70
2023/04/29 06:13:26;;;;;;;4.10;3.80;;;15.70;49.60;;;;;;10385646;28;20233;-69
2023/04/29 06:18:29;;;;;;;6.87;3.87;;;15.70;50.20;;;;;;10385913;28;20225;-70
2023/04/29 06:23:32;;;;;;;3.83;3.53;;;15.80;49.80;;;;;;10380389;28;20222;-70
2023/04/29 06:28:37;;;;;;;4.00;3.80;;;15.90;50.00;;;;;;10380782;28;20232;-69
2023/04/29 06:33:40;;;;;;;3.83;3.63;;;16.00;50.70;;;;;;10386895;28;20622;-69
2023/04/29 06:38:43;;;;;;;4.00;3.70;;;16.00;50.20;;;;;;10381599;28;20229;-70
2023/04/29 06:43:47;;;;;;;4.43;4.03;;;16.10;50.20;;;;;;10384943;28;20757;-71
2023/04/29 06:48:51;;;;;;;4.47;4.07;;;16.20;50.70;;;;;;10376255;28;20281;-70
2023/04/29 06:53:54;;;;;;;3.80;3.50;;;16.30;50.40;;;;;;10384137;28;20234;-70
2023/04/29 06:58:58;;;;;;;4.93;4.43;;;16.40;50.50;;;;;;10386595;28;20226;-70
2023/04/29 07:04:01;;;;;;;4.83;4.53;;;16.40;50.70;;;;;;10377485;28;20235;-70
2023/04/29 07:09:05;;;;;;;4.80;4.47;;;16.50;50.10;;;;;;10385604;28;20242;-69
2023/04/29 07:14:09;;;;;;;4.60;4.30;;;16.60;49.90;;;;;;10382153;28;20234;-70
2023/04/29 07:19:12;;;;;;;5.17;4.77;;;16.60;50.10;;;;;;10378479;28;20609;-69
2023/04/29 07:24:15;;;;;;;4.73;4.37;;;16.60;49.80;;;;;;10380699;28;20288;-69
2023/04/29 07:29:20;;;;;;;5.07;4.67;;;16.70;50.40;;;;;;10382213;28;20229;-69
2023/04/29 07:34:23;;;;;;;5.60;5.20;;;16.80;50.40;;;;;;10382885;28;20304;-70
2023/04/29 07:39:27;;;;;;;5.27;4.70;;;16.80;50.20;;;;;;10376786;28;21205;-69
2023/04/29 07:44:32;;;;;;;5.63;4.93;;;16.90;50.40;;;;;;10384443;28;20226;-69
2023/04/29 07:49:35;;;;;;;4.43;4.17;;;17.00;50.50;;;;;;10378829;28;20233;-69
2023/04/29 07:54:38;;;;;;;5.57;5.17;;;17.10;50.30;;;;;;10381361;28;20241;-69
2023/04/29 07:59:42;;;;;;;5.00;4.70;;;17.20;50.20;;;;;;10380077;28;20226;-69
2023/04/29 08:04:45;;;;;;;4.73;4.43;;;17.30;51.10;;;;;;10382946;28;20237;-69
2023/04/29 08:09:49;;;;;;;5.20;4.70;;;17.40;50.20;;;;;;10379009;28;20657;-70
2023/04/29 08:14:54;;;;;;;4.83;4.43;;;17.60;50.50;;;;;;10382077;28;20284;-70
2023/04/29 08:19:57;;;;;;;4.27;3.87;;;17.70;49.80;;;;;;10381087;28;20226;-69
2023/04/29 08:25:01;;;;;;;4.20;3.80;;;17.90;49.20;;;;;;10378515;28;20237;-69
2023/04/29 08:30:07;;;;;;;3.93;3.67;;;18.00;49.90;;;;;;10379940;28;20234;-69
2023/04/29 08:35:11;;;;;;;3.87;3.67;;;18.20;49.60;;;;;;10383144;28;20250;-69
2023/04/29 08:40:14;;;;;;;3.27;3.07;;;18.50;49.00;;;;;;10375233;28;20624;-70
2023/04/29 08:45:21;;;;;;;3.20;3.00;;;18.60;48.50;;;;;;10378000;28;20599;-70
2023/04/29 08:50:24;;;;;;;3.60;3.30;;;18.80;47.70;;;;;;10375564;28;20234;-69
2023/04/29 08:55:27;;;;;;;3.10;2.90;;;19.00;47.90;;;;;;10377656;28;20280;-70
2023/04/29 09:00:34;;;;;;;3.37;3.17;;;19.30;48.10;;;;;;10376882;28;20232;-69
2023/04/29 09:05:40;;;;;;;3.07;2.87;;;19.50;46.90;;;;;;10379180;28;20236;-69
2023/04/29 09:10:43;;;;;;;2.53;2.33;;;19.70;47.20;;;;;;10373674;28;20234;-70
2023/04/29 09:15:48;;;;;;;2.17;2.07;;;19.90;46.60;;;;;;10378360;28;20230;-70
2023/04/29 09:20:51;;;;;;;2.10;2.00;;;20.00;46.20;;;;;;10375280;28;20237;-69
2023/04/29 09:25:57;;;;;;;1.97;1.87;;;20.20;45.80;;;;;;10383017;28;20225;-70
2023/04/29 09:31:05;;;;;;;2.00;1.90;;;20.30;42.50;;;;;;10377893;28;20234;-70
2023/04/29 09:36:08;;;;;;;2.03;1.93;;;20.40;41.70;;;;;;10385070;28;20241;-69
2023/04/29 09:41:16;;;;;;;2.00;1.90;;;20.30;42.50;;;;;;10381424;28;20621;-69
2023/04/29 09:46:21;;;;;;;2.00;1.90;;;20.30;42.70;;;;;;10381536;28;20228;-70
2023/04/29 09:51:24;;;;;;;2.00;1.90;;;20.30;42.10;;;;;;10387125;28;20233;-70
2023/04/29 09:56:29;;;;;;;1.90;1.80;;;20.40;42.70;;;;;;10385793;28;20226;-69
2023/04/29 10:01:35;;;;;;;1.70;1.60;;;20.50;41.20;;;;;;10383075;28;20237;-70
2023/04/29 10:06:42;;;;;;;1.37;1.37;;;20.60;40.50;;;;;;10388695;28;20233;-69
2023/04/29 10:11:45;;;;;;;1.60;1.60;;;20.70;39.60;;;;;;10383855;28;20603;-69
2023/04/29 10:16:54;;;;;;;1.47;1.37;;;20.70;40.70;;;;;;10383622;28;20238;-69
2023/04/29 10:22:00;;;;;;;3.33;1.70;;;20.90;39.90;;;;;;10385811;28;20233;-69
2023/04/29 10:27:08;;;;;;;2.33;1.60;;;21.10;39.80;;;;;;10382894;28;20234;-69
2023/04/29 10:32:15;;;;;;;1.70;1.60;;;21.20;38.10;;;;;;10383702;28;20265;-69
2023/04/29 10:37:19;;;;;;;1.93;1.80;;;21.20;37.60;;;;;;10383686;28;20232;-69
2023/04/29 10:42:31;;;;;;;2.00;1.90;;;21.00;38.90;;;;;;10385668;28;20246;-69
2023/04/29 10:47:35;;;;;;;2.37;2.20;;;20.80;38.40;;;;;;10384528;28;20230;-69
2023/04/29 10:52:56;;;;;;;2.10;1.90;;;20.60;38.60;;;;;;10379849;28;20232;-69
2023/04/29 10:57:59;;;;;;;2.03;1.93;;;20.40;38.10;;;;;;10376832;28;20322;-69
2023/04/29 11:03:06;;;;;;;1.93;1.83;;;20.20;38.80;;;;;;10378862;28;20269;-69
2023/04/29 11:08:11;;;;;;;2.20;2.00;;;20.00;37.90;;;;;;10379828;28;20313;-69
2023/04/29 11:13:25;;;;;;;1.70;1.60;;;19.80;38.10;;;;;;10379942;28;20234;-69
2023/04/29 11:18:31;;;;;;;2.10;1.87;;;19.80;38.40;;;;;;10383720;28;20229;-69
2023/04/29 11:23:35;;;;;;;1.87;1.77;;;19.80;39.00;;;;;;10379266;28;20236;-69
2023/04/29 11:28:38;;;;;;;1.87;1.77;;;19.80;39.30;;;;;;10384010;28;20234;-69
2023/04/29 11:33:43;;;;;;;2.80;2.60;;;19.80;39.00;;;;;;10384378;28;20245;-69
2023/04/29 11:38:47;;;;;;;2.43;2.23;;;19.80;39.00;;;;;;10385998;28;20744;-69
2023/04/29 11:43:56;;;;;;;2.00;1.90;;;19.80;39.40;;;;;;10381950;28;20233;-69
2023/04/29 11:49:02;;;;;;;2.03;1.93;;;19.90;38.40;;;;;;10376269;28;20710;-69
2023/04/29 11:54:05;;;;;;;2.20;1.97;;;19.90;38.80;;;;;;10380168;28;20760;-69
2023/04/29 11:59:10;;;;;;;1.90;1.80;;;19.90;39.20;;;;;;10379760;28;20230;-69
2023/04/29 12:04:16;;;;;;;2.00;1.90;;;19.90;38.70;;;;;;10380067;28;20249;-69
2023/04/29 12:09:22;;;;;;;1.90;1.80;;;19.80;38.60;;;;;;10379712;28;20214;-69
2023/04/29 12:14:26;;;;;;;1.97;1.80;;;19.70;38.30;;;;;;10385035;28;20250;-69
2023/04/29 12:19:31;;;;;;;2.10;2.00;;;19.70;38.40;;;;;;10379562;28;20230;-69
2023/04/29 12:24:36;;;;;;;2.80;1.70;;;19.70;38.00;;;;;;10379242;28;20238;-69
2023/04/29 12:29:40;;;;;;;3.00;1.77;;;19.60;37.80;;;;;;10382749;28;20301;-69
2023/04/29 12:34:46;;;;;;;1.43;1.40;;;19.50;38.00;;;;;;10380337;28;20234;-69
2023/04/29 12:39:50;;;;;;;1.60;1.50;;;19.50;37.30;;;;;;10380023;28;20357;-69
2023/04/29 12:44:53;;;;;;;1.80;1.70;;;19.50;37.60;;;;;;10381387;28;20944;-69
2023/04/29 12:49:58;;;;;;;1.20;1.20;;;19.60;38.00;;;;;;10380977;28;20296;-69
2023/04/29 12:55:01;;;;;;;2.20;2.00;;;19.60;37.70;;;;;;10377487;28;20237;-69
2023/04/29 13:00:06;;;;;;;1.73;1.63;;;19.70;37.40;;;;;;10379375;28;20237;-69
2023/04/29 13:05:11;;;;;;;1.60;1.50;;;19.70;37.30;;;;;;10377558;28;20706;-69
2023/04/29 13:10:15;;;;;;;2.73;1.77;;;19.80;36.80;;;;;;10379200;28;20233;-71
2023/04/29 13:15:18;;;;;;;2.30;2.10;;;19.80;36.80;;;;;;10374971;28;20229;-71
2023/04/29 13:20:22;;;;;;;1.47;1.37;;;19.80;36.40;;;;;;10376861;28;20237;-70
2023/04/29 13:25:26;;;;;;;1.93;1.83;;;19.80;36.30;;;;;;10371970;28;20233;-70
2023/04/29 13:30:29;;;;;;;1.87;1.77;;;19.80;36.40;;;;;;10375502;28;20225;-70
2023/04/29 13:35:34;;;;;;;1.60;1.50;;;19.80;36.50;;;;;;10374580;28;20242;-71
2023/04/29 13:40:37;;;;;;;1.00;1.00;;;19.70;36.20;;;;;;10374928;28;20243;-70
2023/04/29 13:45:48;;;;;;;1.50;1.40;;;19.70;36.20;;;;;;10371948;28;20230;-70
2023/04/29 13:50:54;;;;;;;1.40;1.30;;;19.70;36.20;;;;;;10375255;28;20229;-68
2023/04/29 13:56:00;;;;;;;1.67;1.57;;;19.70;36.20;;;;;;10382047;28;20234;-69
2023/04/29 14:01:23;;;;;;;1.80;1.60;;;19.80;36.40;;;;;;10375251;28;20253;-69
2023/04/29 14:06:47;;;;;;;1.90;1.70;;;19.80;36.30;;;;;;10373476;28;20227;-69
2023/04/29 14:11:50;;;;;;;2.00;1.90;;;19.80;36.30;;;;;;10373227;28;20637;-69
2023/04/29 14:16:53;;;;;;;2.40;2.20;;;19.80;36.30;;;;;;10379635;28;20231;-69
2023/04/29 14:21:58;;;;;;;2.10;2.00;;;19.70;36.60;;;;;;10380706;28;20231;-69
2023/04/29 14:27:02;;;;;;;4.63;2.97;;;19.70;36.90;;;;;;10382722;28;20234;-69
2023/04/29 14:32:06;;;;;;;2.20;2.10;;;19.80;36.40;;;;;;10382136;28;20227;-69
2023/04/29 14:37:10;;;;;;;2.43;2.23;;;19.80;36.30;;;;;;10383361;28;20661;-69
2023/04/29 14:42:13;;;;;;;2.70;2.50;;;19.80;36.30;;;;;;10381453;28;20230;-69
2023/04/29 14:47:17;;;;;;;2.53;2.40;;;19.80;36.30;;;;;;10383012;28;20236;-69
2023/04/29 14:52:21;;;;;;;2.57;2.37;;;19.80;36.30;;;;;;10378450;28;20682;-69
2023/04/29 14:57:24;;;;;;;2.60;2.50;;;19.80;36.30;;;;;;10382270;28;20733;-69
2023/04/29 15:02:27;;;;;;;2.43;2.33;;;19.80;36.30;;;;;;10380185;28;20230;-69
2023/04/29 15:07:32;;;;;;;2.10;2.00;;;19.80;36.40;;;;;;10382673;28;20254;-69
2023/04/29 15:12:35;;;;;;;2.23;2.03;;;19.80;35.80;;;;;;10382443;28;20226;-69
2023/04/29 15:17:39;;;;;;;2.57;2.37;;;19.80;36.30;;;;;;10380546;28;20232;-69
2023/04/29 15:22:44;;;;;;;2.33;2.17;;;19.80;36.30;;;;;;10381924;28;20240;-69
2023/04/29 15:27:47;;;;;;;2.60;2.50;;;19.80;36.20;;;;;;10379943;28;20296;-69
2023/04/29 15:32:50;;;;;;;2.80;2.60;;;19.80;36.30;;;;;;10381343;28;20245;-69
2023/04/29 15:37:55;;;;;;;2.80;2.60;;;19.70;36.20;;;;;;10382935;28;20230;-69
2023/04/29 15:42:58;;;;;;;2.60;2.40;;;19.70;36.00;;;;;;10378938;28;20227;-69
2023/04/29 15:48:01;;;;;;;3.47;3.17;;;19.60;36.20;;;;;;10377928;28;20229;-69
2023/04/29 15:53:06;;;;;;;3.00;2.80;;;19.60;36.10;;;;;;10383815;28;20241;-69
2023/04/29 15:58:09;;;;;;;3.03;2.83;;;19.50;35.90;;;;;;10380221;28;20615;-69
2023/04/29 16:03:12;;;;;;;3.17;2.97;;;19.50;36.10;;;;;;10380629;28;20265;-69
2023/04/29 16:08:17;;;;;;;3.90;3.63;;;19.40;36.00;;;;;;10384424;28;20240;-69
2023/04/29 16:13:20;;;;;;;4.20;3.67;;;19.30;35.90;;;;;;10383033;28;20225;-69
2023/04/29 16:18:23;;;;;;;3.53;3.23;;;19.30;35.90;;;;;;10379037;28;20236;-69
2023/04/29 16:23:28;;;;;;;3.50;3.30;;;19.20;35.80;;;;;;10378579;28;20705;-69
2023/04/29 16:28:31;;;;;;;3.50;3.20;;;19.10;35.70;;;;;;10381553;28;20253;-69
2023/04/29 16:33:34;;;;;;;3.00;2.80;;;19.00;35.60;;;;;;10379851;28;20226;-69
2023/04/29 16:38:38;;;;;;;4.17;2.90;;;18.90;35.60;;;;;;10382503;28;20226;-69
2023/04/29 16:43:42;;;;;;;3.00;2.80;;;18.90;35.50;;;;;;10376222;28;20229;-70
2023/04/29 16:48:45;;;;;;;3.30;3.10;;;18.90;35.50;;;;;;10375761;28;20728;-70
2023/04/29 16:53:49;;;;;;;3.40;3.20;;;18.90;35.50;;;;;;10373911;28;20301;-71
2023/04/29 16:58:53;;;;;;;2.43;2.30;;;18.80;35.50;;;;;;10378140;28;20572;-70
2023/04/29 17:03:56;;;;;;;3.00;2.80;;;18.80;35.50;;;;;;10379402;28;20234;-70
2023/04/29 17:09:01;;;;;;;3.20;2.90;;;18.80;35.50;;;;;;10375252;28;20296;-71
2023/04/29 17:14:04;;;;;;;2.80;2.60;;;18.80;35.50;;;;;;10375346;28;20319;-70
2023/04/29 17:19:07;;;;;;;2.80;2.60;;;18.70;35.40;;;;;;10370218;28;20234;-71
2023/04/29 17:24:12;;;;;;;2.50;2.40;;;18.70;35.40;;;;;;10371177;28;20233;-70
2023/04/29 17:29:15;;;;;;;2.77;2.57;;;18.60;35.30;;;;;;10372779;28;20945;-70
2023/04/29 17:34:22;;;;;;;2.60;2.40;;;18.50;35.20;;;;;;10369546;28;20358;-70
2023/04/29 17:39:26;;;;;;;2.47;2.27;;;18.50;35.20;;;;;;10370270;28;20233;-70
2023/04/29 17:44:30;;;;;;;3.67;2.40;;;18.40;35.10;;;;;;10369076;28;20234;-70
2023/04/29 17:49:33;;;;;;;2.50;2.30;;;18.40;35.10;;;;;;10369920;28;20640;-70
2023/04/29 17:54:40;;;;;;;2.60;2.40;;;18.30;35.10;;;;;;10376240;28;20245;-70
2023/04/29 17:59:43;;;;;;;2.40;2.20;;;18.40;35.10;;;;;;10378000;28;20226;-70
2023/04/29 18:04:46;;;;;;;2.13;2.03;;;18.30;35.00;;;;;;10377331;28;20608;-70
2023/04/29 18:09:51;;;;;;;2.20;2.10;;;18.30;35.00;;;;;;10379258;28;20240;-70
2023/04/29 18:14:54;;;;;;;2.40;2.20;;;18.30;35.00;;;;;;10383604;28;20255;-70
2023/04/29 18:19:57;;;;;;;2.57;2.37;;;18.30;35.00;;;;;;10382188;28;20237;-70
2023/04/29 18:25:02;;;;;;;2.27;2.13;;;18.20;34.90;;;;;;10379255;28;20237;-70
2023/04/29 18:30:07;;;;;;;2.33;2.07;;;18.20;35.00;;;;;;10378020;28;20706;-70
2023/04/29 18:35:10;;;;;;;2.70;2.13;;;18.10;34.80;;;;;;10380469;28;20241;-70
2023/04/29 18:40:14;;;;;;;2.10;2.00;;;18.10;34.80;;;;;;10377824;28;20260;-70
2023/04/29 18:45:18;;;;;;;2.20;2.10;;;18.00;34.70;;;;;;10379031;28;20236;-70
2023/04/29 18:50:21;;;;;;;2.10;2.00;;;17.90;34.70;;;;;;10377073;28;20299;-70
2023/04/29 18:55:26;;;;;;;1.97;1.87;;;17.90;35.00;;;;;;10376622;28;20240;-70
2023/04/29 19:00:29;;;;;;;1.77;1.67;;;17.80;35.10;;;;;;10374993;28;20241;-70
2023/04/29 19:05:32;;;;;;;1.90;1.80;;;17.80;35.20;;;;;;10377261;28;20235;-70
2023/04/29 19:10:37;;;;;;;1.97;1.80;;;17.80;35.40;;;;;;10379362;28;20238;-70
2023/04/29 19:15:40;;;;;;;2.20;2.10;;;17.80;35.40;;;;;;10375979;28;20226;-70
2023/04/29 19:20:43;;;;;;;2.20;2.00;;;17.70;35.40;;;;;;10372426;28;20241;-70
2023/04/29 19:25:47;;;;;;;2.30;2.20;;;17.80;35.50;;;;;;10378115;28;20223;-70
2023/04/29 19:30:51;;;;;;;2.50;2.30;;;17.70;35.20;;;;;;10376527;28;20303;-70
2023/04/29 19:35:54;;;;;;;2.57;2.37;;;17.70;35.20;;;;;;10376642;28;20310;-70
2023/04/29 19:40:59;;;;;;;2.57;2.37;;;17.60;35.10;;;;;;10382443;28;20291;-70
2023/04/29 19:46:02;;;;;;;2.30;2.10;;;17.60;35.10;;;;;;10376519;28;20714;-70
2023/04/29 19:51:07;;;;;;;2.33;2.20;;;17.50;35.30;;;;;;10376276;28;20717;-70
2023/04/29 19:56:11;;;;;;;2.23;2.13;;;17.50;35.40;;;;;;10377713;28;20233;-70
2023/04/29 20:01:14;;;;;;;2.13;2.03;;;17.40;35.30;;;;;;10375521;28;20244;-70
2023/04/29 20:06:18;;;;;;;2.50;2.40;;;17.40;35.60;;;;;;10374966;28;20229;-70
2023/04/29 20:11:23;;;;;;;2.50;2.30;;;17.40;35.50;;;;;;10376772;28;20234;-70
2023/04/29 20:16:28;;;;;;;2.50;2.30;;;17.40;35.40;;;;;;10375022;28;20324;-70
2023/04/29 20:21:32;;;;;;;2.40;2.30;;;17.30;35.40;;;;;;10376485;28;20254;-70
2023/04/29 20:26:36;;;;;;;2.00;1.90;;;17.20;35.40;;;;;;10374663;28;20846;-70
2023/04/29 20:31:40;;;;;;;4.03;2.27;;;17.20;35.60;;;;;;10375542;28;20234;-70
2023/04/29 20:36:43;;;;;;;2.00;1.90;;;17.20;35.60;;;;;;10373312;28;20605;-70
2023/04/29 20:41:48;;;;;;;3.33;2.17;;;17.20;35.70;;;;;;10373102;28;20241;-70
2023/04/29 20:46:51;;;;;;;4.40;3.00;;;17.10;35.80;;;;;;10375703;28;20867;-70
2023/04/29 20:51:55;;;;;;;3.43;3.17;;;17.10;35.70;;;;;;10375352;28;20230;-70
2023/04/29 20:56:59;;;;;;;3.50;3.20;;;17.00;35.80;;;;;;10379255;28;20237;-70
2023/04/29 21:02:02;;;;;;;2.93;2.73;;;17.00;35.90;;;;;;10374945;28;20271;-70
2023/04/29 21:07:06;;;;;;;4.07;3.20;;;17.00;36.10;;;;;;10374465;28;20248;-70
2023/04/29 21:12:13;;;;;;;3.50;3.20;;;16.90;36.10;;;;;;10376412;28;20336;-70
2023/04/29 21:17:16;;;;;;;3.20;2.90;;;16.90;36.20;;;;;;10372361;28;20325;-70
2023/04/29 21:22:19;;;;;;;3.33;2.70;;;16.90;36.10;;;;;;10370387;28;20260;-70
2023/04/29 21:27:24;;;;;;;2.83;2.63;;;16.90;36.20;;;;;;10375354;28;20226;-70
2023/04/29 21:32:27;;;;;;;2.70;2.50;;;16.90;36.20;;;;;;10384373;28;20241;-70
2023/04/29 21:37:30;;;;;;;3.00;2.80;;;16.80;36.20;;;;;;10378774;28;20226;-70
2023/04/29 21:42:35;;;;;;;2.87;2.67;;;16.70;36.20;;;;;;10382428;28;20237;-70
2023/04/29 21:47:38;;;;;;;2.60;2.43;;;16.70;36.40;;;;;;10377654;28;20224;-70
2023/04/29 21:52:41;;;;;;;2.77;2.50;;;16.70;36.50;;;;;;10381034;28;20238;-70
2023/04/29 21:57:46;;;;;;;2.70;2.50;;;16.70;36.50;;;;;;10379628;28;20229;-70
2023/04/29 22:02:49;;;;;;;2.70;2.50;;;16.70;36.70;;;;;;10380772;28;20292;-71
2023/04/29 22:07:52;;;;;;;2.70;2.50;;;16.70;36.50;;;;;;10378742;28;20246;-70
2023/04/29 22:12:57;;;;;;;2.67;2.50;;;16.60;37.10;;;;;;10379797;28;20322;-70
2023/04/29 22:18:00;;;;;;;2.77;2.57;;;16.50;36.50;;;;;;10379466;28;20714;-70
2023/04/29 22:23:03;;;;;;;2.33;2.13;;;16.50;36.60;;;;;;10379829;28;20234;-70
2023/04/29 22:28:08;;;;;;;2.50;2.30;;;16.40;36.60;;;;;;10379367;28;20226;-70
2023/04/29 22:33:12;;;;;;;2.63;2.43;;;16.40;36.80;;;;;;10381362;28;21032;-70
2023/04/29 22:38:16;;;;;;;2.57;2.37;;;16.30;36.90;;;;;;10378965;28;20281;-70
2023/04/29 22:43:20;;;;;;;2.70;2.50;;;16.20;36.60;;;;;;10380264;28;20229;-70
2023/04/29 22:48:24;;;;;;;2.60;2.40;;;16.20;37.00;;;;;;10378766;28;20233;-70
2023/04/29 22:53:29;;;;;;;2.60;2.50;;;16.10;36.90;;;;;;10378815;28;20237;-70
2023/04/29 22:58:34;;;;;;;2.30;2.20;;;16.10;37.90;;;;;;10375129;28;20596;-69
2023/04/29 23:03:37;;;;;;;3.60;2.40;;;16.10;37.50;;;;;;10370493;28;20252;-69
2023/04/29 23:08:40;;;;;;;2.43;2.33;;;16.10;37.30;;;;;;10380281;28;20722;-69
2023/04/29 23:13:45;;;;;;;2.70;2.50;;;16.10;37.40;;;;;;10380570;28;20254;-69
2023/04/29 23:18:48;;;;;;;2.80;2.60;;;16.10;37.50;;;;;;10379027;28;20245;-69
2023/04/29 23:23:51;;;;;;;3.00;2.80;;;16.00;37.20;;;;;;10359371;28;20308;-69
2023/04/29 23:28:55;;;;;;;3.10;2.90;;;16.00;37.30;;;;;;10374096;28;20781;-69
2023/04/29 23:33:59;;;;;;;3.27;3.07;;;16.00;37.60;;;;;;10380279;28;20590;-69
2023/04/29 23:39:02;;;;;;;3.33;3.03;;;16.00;37.60;;;;;;10377988;28;20225;-69
2023/04/29 23:44:07;;;;;;;3.60;3.40;;;16.00;37.40;;;;;;10377007;28;20248;-69
2023/04/29 23:49:10;;;;;;;4.53;4.17;;;16.00;37.60;;;;;;10376269;28;20237;-69
2023/04/29 23:54:13;;;;;;;4.70;4.30;;;15.90;37.40;;;;;;10374707;28;20226;-69
2023/04/29 23:59:18;;;;;;;5.20;4.77;;;15.90;37.30;;;;;;10378026;28;20284;-69
